createdAt,value
2022-11-22T00:00:46.865Z,98847.00
2022-11-22T00:03:14.086Z,98854.00
2022-11-22T00:05:41.247Z,98851.00
2022-11-22T00:08:08.668Z,98846.00
2022-11-22T00:10:36.229Z,98852.00
2022-11-22T00:13:05.014Z,98849.00
2022-11-22T00:15:32.412Z,98848.00
2022-11-22T00:17:59.602Z,98854.00
2022-11-22T00:20:26.914Z,98852.00
2022-11-22T00:22:54.315Z,98853.00
2022-11-22T00:25:21.556Z,98852.00
2022-11-22T00:27:48.738Z,98856.00
2022-11-22T00:30:16.403Z,98844.00
2022-11-22T00:32:43.725Z,98852.00
2022-11-22T00:35:13.050Z,98851.00
2022-11-22T00:37:40.193Z,98853.00
2022-11-22T00:40:08.419Z,98851.00
2022-11-22T00:42:35.633Z,98845.00
2022-11-22T00:45:03.227Z,98836.00
2022-11-22T00:47:30.441Z,98845.00
2022-11-22T00:49:57.584Z,98846.00
2022-11-22T00:52:25.022Z,98847.00
2022-11-22T00:54:55.024Z,98834.00
2022-11-22T00:57:23.224Z,98852.00
2022-11-22T00:59:50.642Z,98845.00
2022-11-22T01:02:18.133Z,98843.00
2022-11-22T01:04:45.516Z,98838.00
2022-11-22T01:07:15.476Z,98848.00
2022-11-22T01:09:42.784Z,98862.00
2022-11-22T01:12:10.038Z,98852.00
2022-11-22T01:14:37.254Z,98851.00
2022-11-22T01:17:04.593Z,98847.00
2022-11-22T01:19:32.302Z,98857.00
2022-11-22T01:21:59.781Z,98848.00
2022-11-22T01:24:26.931Z,98858.00
2022-11-22T01:26:54.707Z,98859.00
2022-11-22T01:29:21.924Z,98865.00
2022-11-22T01:31:49.277Z,98870.00
2022-11-22T01:34:16.404Z,98871.00
2022-11-22T01:36:43.773Z,98872.00
2022-11-22T01:39:11.260Z,98878.00
2022-11-22T01:41:38.820Z,98867.00
2022-11-22T01:44:45.711Z,98866.00
2022-11-22T01:47:24.450Z,98846.00
2022-11-22T01:50:16.997Z,98857.00
2022-11-22T01:52:44.649Z,98846.00
2022-11-22T01:55:17.801Z,98869.00
2022-11-22T01:57:48.055Z,98874.00
2022-11-22T02:00:18.738Z,98866.00
2022-11-22T02:02:58.146Z,98883.00
2022-11-22T02:05:32.824Z,98891.00
2022-11-22T02:08:21.052Z,98890.00
2022-11-22T02:10:52.144Z,98889.00
2022-11-22T02:13:25.387Z,98909.00
2022-11-22T02:15:53.419Z,98913.00
2022-11-22T02:18:20.811Z,98908.00
2022-11-22T02:20:48.218Z,98901.00
2022-11-22T02:23:55.966Z,98899.00
2022-11-22T02:26:29.364Z,98904.00
2022-11-22T02:29:04.437Z,98904.00
2022-11-22T02:31:43.261Z,98894.00
2022-11-22T02:34:12.848Z,98903.00
2022-11-22T02:36:54.732Z,98902.00
2022-11-22T02:39:31.959Z,98895.00
2022-11-22T02:41:59.516Z,98889.00
2022-11-22T02:44:27.692Z,98904.00
2022-11-22T02:46:56.388Z,98894.00
2022-11-22T02:49:25.599Z,98900.00
2022-11-22T02:51:56.084Z,98906.00
2022-11-22T02:54:23.277Z,98905.00
2022-11-22T02:56:50.659Z,98910.00
2022-11-22T02:59:17.909Z,98915.00
2022-11-22T03:01:48.009Z,98899.00
2022-11-22T03:04:25.357Z,98917.00
2022-11-22T03:06:55.857Z,98926.00
2022-11-22T03:09:27.782Z,98929.00
2022-11-22T03:11:56.077Z,98927.00
2022-11-22T03:14:23.491Z,98927.00
2022-11-22T03:16:51.514Z,98922.00
2022-11-22T03:19:19.288Z,98934.00
2022-11-22T03:21:46.687Z,98931.00
2022-11-22T03:24:17.090Z,98940.00
2022-11-22T03:26:50.259Z,98941.00
2022-11-22T03:29:18.372Z,98941.00
2022-11-22T03:31:52.703Z,98957.00
2022-11-22T03:34:19.998Z,98956.00
2022-11-22T03:36:47.159Z,98956.00
2022-11-22T03:39:14.392Z,98949.00
2022-11-22T03:41:41.709Z,98961.00
2022-11-22T03:44:09.051Z,98954.00
2022-11-22T03:46:39.388Z,98949.00
2022-11-22T03:49:06.834Z,98949.00
2022-11-22T03:51:34.019Z,98960.00
2022-11-22T03:54:01.325Z,98954.00
2022-11-22T03:56:30.352Z,98964.00
2022-11-22T03:58:57.661Z,98949.00
2022-11-22T04:01:27.061Z,98961.00
2022-11-22T04:03:54.482Z,98957.00
2022-11-22T04:06:21.628Z,98946.00
2022-11-22T04:08:49.175Z,98964.00
2022-11-22T04:11:19.198Z,98965.00
2022-11-22T04:14:05.294Z,98970.00
2022-11-22T04:16:32.681Z,98966.00
2022-11-22T04:18:59.831Z,98980.00
2022-11-22T04:21:37.628Z,98984.00
2022-11-22T04:24:32.920Z,98999.00
2022-11-22T04:27:00.101Z,98993.00
2022-11-22T04:29:30.666Z,99005.00
2022-11-22T04:32:19.264Z,99010.00
2022-11-22T04:34:49.640Z,99004.00
2022-11-22T04:37:19.576Z,99017.00
2022-11-22T04:39:49.415Z,99000.00
2022-11-22T04:42:35.190Z,99016.00
2022-11-22T04:45:02.563Z,99013.00
2022-11-22T04:47:50.443Z,99014.00
2022-11-22T04:50:36.861Z,99009.00
2022-11-22T04:53:04.164Z,99013.00
2022-11-22T04:55:31.368Z,99006.00
2022-11-22T04:58:00.248Z,99014.00
2022-11-22T05:04:42.456Z,99014.00
2022-11-22T05:07:11.578Z,98998.00
2022-11-22T05:09:38.936Z,99001.00
2022-11-22T05:12:06.873Z,99014.00
2022-11-22T05:14:33.947Z,99010.00
2022-11-22T05:17:01.019Z,99009.00
2022-11-22T05:19:28.540Z,99008.00
2022-11-22T05:22:02.118Z,99009.00
2022-11-22T05:24:29.269Z,99006.00
2022-11-22T05:26:56.476Z,99017.00
2022-11-22T05:29:23.523Z,99015.00
2022-11-22T05:31:51.683Z,99012.00
2022-11-22T05:34:18.892Z,99006.00
2022-11-22T05:36:49.060Z,99015.00
2022-11-22T05:39:18.515Z,99010.00
2022-11-22T05:41:56.424Z,99023.00
2022-11-22T05:44:24.282Z,99021.00
2022-11-22T05:46:51.504Z,99018.00
2022-11-22T05:49:20.320Z,99025.00
2022-11-22T05:51:47.889Z,99024.00
2022-11-22T05:54:15.187Z,99014.00
2022-11-22T05:56:42.449Z,99024.00
2022-11-22T05:59:09.636Z,99026.00
2022-11-22T06:01:39.022Z,99021.00
2022-11-22T06:04:07.932Z,99017.00
2022-11-22T06:06:35.235Z,99028.00
2022-11-22T06:09:02.423Z,99027.00
2022-11-22T06:11:29.763Z,99023.00
2022-11-22T06:14:05.099Z,99033.00
2022-11-22T06:16:32.685Z,99027.00
2022-11-22T06:18:59.914Z,99039.00
2022-11-22T06:21:28.804Z,99019.00
2022-11-22T06:23:56.713Z,99021.00
2022-11-22T06:26:25.142Z,99035.00
2022-11-22T06:28:55.686Z,99041.00
2022-11-22T06:31:26.574Z,99038.00
2022-11-22T06:33:56.311Z,99036.00
2022-11-22T06:36:41.680Z,99036.00
2022-11-22T06:39:12.237Z,99041.00
2022-11-22T06:41:39.675Z,99039.00
2022-11-22T06:44:09.801Z,99049.00
2022-11-22T06:46:38.456Z,99035.00
2022-11-22T06:49:05.696Z,99034.00
2022-11-22T06:51:33.604Z,99043.00
2022-11-22T06:54:03.092Z,99048.00
2022-11-22T06:56:36.733Z,99049.00
2022-11-22T06:59:11.434Z,99073.00
2022-11-22T07:01:45.996Z,99050.00
2022-11-22T07:04:13.643Z,99050.00
2022-11-22T07:06:41.111Z,99053.00
2022-11-22T07:09:11.557Z,99057.00
2022-11-22T07:11:41.278Z,99042.00
2022-11-22T07:14:11.275Z,99063.00
2022-11-22T07:16:42.296Z,99054.00
2022-11-22T07:19:15.738Z,99069.00
2022-11-22T07:21:43.035Z,99072.00
2022-11-22T07:24:10.423Z,99074.00
2022-11-22T07:26:37.926Z,99087.00
2022-11-22T07:29:05.555Z,99080.00
2022-11-22T07:31:33.409Z,99090.00
2022-11-22T07:34:03.542Z,99078.00
2022-11-22T07:36:31.300Z,99089.00
2022-11-22T07:39:03.066Z,99089.00
2022-11-22T07:41:30.504Z,99088.00
2022-11-22T07:49:27.784Z,99096.00
2022-11-22T07:51:55.323Z,99102.00
2022-11-22T07:54:25.853Z,99104.00
2022-11-22T07:56:53.437Z,99102.00
2022-11-22T07:59:21.063Z,99115.00
2022-11-22T08:01:53.766Z,99110.00
2022-11-22T08:04:21.618Z,99102.00
2022-11-22T08:06:51.427Z,99094.00
2022-11-22T08:09:18.901Z,99102.00
2022-11-22T08:11:46.794Z,99104.00
2022-11-22T08:14:14.476Z,99098.00
2022-11-22T08:16:44.744Z,99098.00
2022-11-22T08:19:16.353Z,99103.00
2022-11-22T08:21:45.914Z,99092.00
2022-11-22T08:24:16.902Z,99099.00
2022-11-22T08:26:50.747Z,99095.00
2022-11-22T08:29:20.563Z,99086.00
2022-11-22T08:31:48.778Z,99088.00
2022-11-22T08:34:16.632Z,99101.00
2022-11-22T08:36:44.256Z,99094.00
2022-11-22T08:39:14.478Z,99103.00
2022-11-22T08:41:42.496Z,99087.00
2022-11-22T08:44:12.922Z,99102.00
2022-11-22T08:46:40.467Z,99099.00
2022-11-22T08:49:07.975Z,99097.00
2022-11-22T08:51:37.362Z,99092.00
2022-11-22T08:54:07.327Z,99113.00
2022-11-22T08:56:34.828Z,99101.00
2022-11-22T08:59:02.747Z,99105.00
2022-11-22T09:01:42.835Z,99105.00
2022-11-22T09:04:13.496Z,99112.00
2022-11-22T09:09:43.515Z,99112.00
2022-11-22T09:12:11.556Z,99113.00
2022-11-22T09:14:39.185Z,99120.00
2022-11-22T09:17:07.124Z,99121.00
2022-11-22T09:19:34.665Z,99115.00
2022-11-22T09:22:02.094Z,99111.00
2022-11-22T09:24:29.744Z,99117.00
2022-11-22T09:26:57.254Z,99122.00
2022-11-22T09:29:26.512Z,99121.00
2022-11-22T09:31:56.200Z,99109.00
2022-11-22T09:34:23.572Z,99111.00
2022-11-22T09:36:53.886Z,99115.00
2022-11-22T09:39:21.408Z,99118.00
2022-11-22T09:42:44.818Z,99139.00
2022-11-22T09:46:01.486Z,99129.00
2022-11-22T09:49:06.836Z,99119.00
2022-11-22T09:51:50.287Z,99116.00
2022-11-22T09:54:35.950Z,99099.00
2022-11-22T09:57:13.350Z,99106.00
2022-11-22T09:59:47.625Z,99096.00
2022-11-22T10:02:54.845Z,99098.00
2022-11-22T10:05:32.445Z,99099.00
2022-11-22T10:08:43.964Z,99101.00
2022-11-22T10:11:43.848Z,99103.00
2022-11-22T10:14:48.504Z,99098.00
2022-11-22T10:17:21.452Z,99092.00
2022-11-22T10:20:12.312Z,99086.00
2022-11-22T10:22:41.636Z,99084.00
2022-11-22T10:25:19.519Z,99086.00
2022-11-22T10:28:11.762Z,99079.00
2022-11-22T10:30:53.130Z,99084.00
2022-11-22T10:33:41.312Z,99075.00
2022-11-22T10:36:44.864Z,99070.00
2022-11-22T10:39:54.998Z,99068.00
2022-11-22T10:43:04.348Z,99064.00
2022-11-22T10:46:15.066Z,99069.00
2022-11-22T10:49:44.557Z,99060.00
2022-11-22T10:52:46.796Z,99066.00
2022-11-22T10:56:12.872Z,99050.00
2022-11-22T10:59:25.788Z,99060.00
2022-11-22T11:02:22.639Z,99050.00
2022-11-22T11:04:55.013Z,99041.00
2022-11-22T11:07:26.453Z,99049.00
2022-11-22T11:10:12.799Z,99038.00
2022-11-22T11:13:02.112Z,99025.00
2022-11-22T11:15:39.091Z,99032.00
2022-11-22T11:18:17.985Z,99021.00
2022-11-22T11:20:58.659Z,99029.00
2022-11-22T11:23:29.128Z,99021.00
2022-11-22T11:26:18.588Z,99029.00
2022-11-22T11:28:47.912Z,99032.00
2022-11-22T11:31:19.256Z,99032.00
2022-11-22T11:33:48.188Z,99041.00
2022-11-22T11:36:31.147Z,99025.00
2022-11-22T11:38:59.840Z,99033.00
2022-11-22T11:41:32.935Z,99022.00
2022-11-22T11:44:06.497Z,99017.00
2022-11-22T11:46:47.092Z,99023.00
2022-11-22T11:49:16.705Z,99031.00
2022-11-22T11:51:48.728Z,99022.00
2022-11-22T11:54:23.980Z,99018.00
2022-11-22T11:57:03.747Z,99037.00
2022-11-22T11:59:47.768Z,99036.00
2022-11-22T12:02:24.957Z,99026.00
2022-11-22T12:05:06.584Z,99042.00
2022-11-22T12:07:37.005Z,99027.00
2022-11-22T12:10:33.021Z,99027.00
2022-11-22T12:13:09.306Z,99022.00
2022-11-22T12:15:54.950Z,99037.00
2022-11-22T12:19:29.185Z,99032.00
2022-11-22T12:22:35.555Z,99036.00
2022-11-22T12:25:44.328Z,99033.00
2022-11-22T12:28:25.298Z,99020.00
2022-11-22T12:31:37.998Z,99025.00
2022-11-22T12:34:22.905Z,99032.00
2022-11-22T12:37:08.341Z,99020.00
2022-11-22T12:39:42.743Z,99014.00
2022-11-22T12:42:23.272Z,99016.00
2022-11-22T12:45:15.410Z,99027.00
2022-11-22T12:47:46.967Z,99018.00
2022-11-22T12:50:49.017Z,99028.00
2022-11-22T12:53:37.938Z,99028.00
2022-11-22T12:56:28.413Z,99033.00
2022-11-22T12:59:48.438Z,99029.00
2022-11-22T13:03:02.372Z,99032.00
2022-11-22T13:05:41.269Z,99021.00
2022-11-22T13:09:03.452Z,99035.00
2022-11-22T13:11:45.950Z,99029.00
2022-11-22T13:14:31.738Z,99029.00
2022-11-22T13:17:06.205Z,99022.00
2022-11-22T13:19:47.105Z,99035.00
2022-11-22T13:22:50.493Z,99033.00
2022-11-22T13:26:10.320Z,99022.00
2022-11-22T13:28:45.917Z,99021.00
2022-11-22T13:31:20.091Z,99014.00
